sensor_id;sensor_type;location;lat;lon;timestamp;temperature;humidity
16315;DHT22;8266;52.150;4.768;2023-09-19T00:00:07;18.70;99.90
16315;DHT22;8266;52.150;4.768;2023-09-19T00:02:35;18.70;99.90
16315;DHT22;8266;52.150;4.768;2023-09-19T00:05:02;18.70;99.90
16315;DHT22;8266;52.150;4.768;2023-09-19T00:07:30;18.70;99.90
16315;DHT22;8266;52.150;4.768;2023-09-19T00:09:57;18.70;99.90
16315;DHT22;8266;52.150;4.768;2023-09-19T00:12:24;18.70;99.90
16315;DHT22;8266;52.150;4.768;2023-09-19T00:14:53;18.70;99.90
16315;DHT22;8266;52.150;4.768;2023-09-19T00:17:19;18.70;99.90
16315;DHT22;8266;52.150;4.768;2023-09-19T00:19:47;18.70;99.90
16315;DHT22;8266;52.150;4.768;2023-09-19T00:22:18;18.70;99.90
16315;DHT22;8266;52.150;4.768;2023-09-19T00:24:45;18.70;99.90
16315;DHT22;8266;52.150;4.768;2023-09-19T00:27:13;18.70;99.90
16315;DHT22;8266;52.150;4.768;2023-09-19T00:29:40;18.70;99.90
16315;DHT22;8266;52.150;4.768;2023-09-19T00:32:08;18.60;99.90
16315;DHT22;8266;52.150;4.768;2023-09-19T00:34:35;18.60;99.90
16315;DHT22;8266;52.150;4.768;2023-09-19T00:37:03;18.60;99.90
16315;DHT22;8266;52.150;4.768;2023-09-19T00:39:30;18.60;99.90
16315;DHT22;8266;52.150;4.768;2023-09-19T00:41:57;18.60;99.90
16315;DHT22;8266;52.150;4.768;2023-09-19T00:44:30;18.60;99.90
16315;DHT22;8266;52.150;4.768;2023-09-19T00:46:57;18.60;99.90
16315;DHT22;8266;52.150;4.768;2023-09-19T00:49:26;18.50;99.90
16315;DHT22;8266;52.150;4.768;2023-09-19T00:51:53;18.50;99.90
16315;DHT22;8266;52.150;4.768;2023-09-19T00:54:22;18.50;99.90
16315;DHT22;8266;52.150;4.768;2023-09-19T00:56:49;18.50;99.90
16315;DHT22;8266;52.150;4.768;2023-09-19T00:59:16;18.50;99.90
16315;DHT22;8266;52.150;4.768;2023-09-19T01:01:43;18.50;99.90
16315;DHT22;8266;52.150;4.768;2023-09-19T01:04:11;18.50;99.90
16315;DHT22;8266;52.150;4.768;2023-09-19T01:06:40;18.40;99.90
16315;DHT22;8266;52.150;4.768;2023-09-19T01:09:07;18.40;99.90
16315;DHT22;8266;52.150;4.768;2023-09-19T01:11:42;18.40;99.90
16315;DHT22;8266;52.150;4.768;2023-09-19T01:14:21;18.40;99.90
16315;DHT22;8266;52.150;4.768;2023-09-19T01:16:58;18.40;99.90
16315;DHT22;8266;52.150;4.768;2023-09-19T01:20:01;18.30;99.90
16315;DHT22;8266;52.150;4.768;2023-09-19T01:22:40;18.30;99.90
16315;DHT22;8266;52.150;4.768;2023-09-19T01:28:32;18.20;99.90
16315;DHT22;8266;52.150;4.768;2023-09-19T01:31:09;18.20;99.90
16315;DHT22;8266;52.150;4.768;2023-09-19T01:33:59;18.20;99.90
16315;DHT22;8266;52.150;4.768;2023-09-19T01:36:27;18.10;99.90
16315;DHT22;8266;52.150;4.768;2023-09-19T01:38:56;18.10;99.90
16315;DHT22;8266;52.150;4.768;2023-09-19T01:41:29;18.10;99.90
16315;DHT22;8266;52.150;4.768;2023-09-19T01:44:00;18.00;99.90
16315;DHT22;8266;52.150;4.768;2023-09-19T01:46:34;18.00;99.90
16315;DHT22;8266;52.150;4.768;2023-09-19T01:49:14;18.00;99.90
16315;DHT22;8266;52.150;4.768;2023-09-19T01:51:50;18.00;99.90
16315;DHT22;8266;52.150;4.768;2023-09-19T01:54:24;18.00;99.90
16315;DHT22;8266;52.150;4.768;2023-09-19T01:56:57;17.90;99.90
16315;DHT22;8266;52.150;4.768;2023-09-19T01:59:34;17.90;99.90
16315;DHT22;8266;52.150;4.768;2023-09-19T02:02:04;17.90;99.90
16315;DHT22;8266;52.150;4.768;2023-09-19T02:04:33;17.90;99.90
16315;DHT22;8266;52.150;4.768;2023-09-19T02:07:00;17.90;99.90
16315;DHT22;8266;52.150;4.768;2023-09-19T02:09:28;17.90;99.90
16315;DHT22;8266;52.150;4.768;2023-09-19T02:11:55;17.90;99.90
16315;DHT22;8266;52.150;4.768;2023-09-19T02:14:22;17.90;99.90
16315;DHT22;8266;52.150;4.768;2023-09-19T02:16:49;17.90;99.90
16315;DHT22;8266;52.150;4.768;2023-09-19T02:19:17;18.00;99.90
16315;DHT22;8266;52.150;4.768;2023-09-19T02:21:46;18.00;99.90
16315;DHT22;8266;52.150;4.768;2023-09-19T02:24:14;17.90;99.90
16315;DHT22;8266;52.150;4.768;2023-09-19T02:26:41;18.00;99.90
16315;DHT22;8266;52.150;4.768;2023-09-19T02:29:09;18.00;99.90
16315;DHT22;8266;52.150;4.768;2023-09-19T02:31:38;18.00;99.90
16315;DHT22;8266;52.150;4.768;2023-09-19T02:34:05;18.00;99.90
16315;DHT22;8266;52.150;4.768;2023-09-19T02:36:34;18.00;99.90
16315;DHT22;8266;52.150;4.768;2023-09-19T02:39:01;18.00;99.90
16315;DHT22;8266;52.150;4.768;2023-09-19T02:41:28;18.00;99.90
16315;DHT22;8266;52.150;4.768;2023-09-19T02:43:56;18.00;99.90
16315;DHT22;8266;52.150;4.768;2023-09-19T02:46:24;18.00;99.90
16315;DHT22;8266;52.150;4.768;2023-09-19T02:48:51;18.00;99.90
16315;DHT22;8266;52.150;4.768;2023-09-19T02:51:20;18.00;99.90
16315;DHT22;8266;52.150;4.768;2023-09-19T02:53:49;18.00;99.90
16315;DHT22;8266;52.150;4.768;2023-09-19T02:56:18;17.90;99.90
16315;DHT22;8266;52.150;4.768;2023-09-19T02:58:45;17.90;99.90
16315;DHT22;8266;52.150;4.768;2023-09-19T03:01:14;17.90;99.90
16315;DHT22;8266;52.150;4.768;2023-09-19T03:03:41;17.90;99.90
16315;DHT22;8266;52.150;4.768;2023-09-19T03:06:08;17.90;99.90
16315;DHT22;8266;52.150;4.768;2023-09-19T03:08:35;18.00;99.90
16315;DHT22;8266;52.150;4.768;2023-09-19T03:11:06;18.00;99.90
16315;DHT22;8266;52.150;4.768;2023-09-19T03:13:36;18.00;99.90
16315;DHT22;8266;52.150;4.768;2023-09-19T03:16:05;18.00;99.90
16315;DHT22;8266;52.150;4.768;2023-09-19T03:18:33;18.00;99.90
16315;DHT22;8266;52.150;4.768;2023-09-19T03:21:00;18.00;99.90
16315;DHT22;8266;52.150;4.768;2023-09-19T03:23:28;18.00;99.90
16315;DHT22;8266;52.150;4.768;2023-09-19T03:25:55;18.00;99.90
16315;DHT22;8266;52.150;4.768;2023-09-19T03:28:25;18.10;99.90
16315;DHT22;8266;52.150;4.768;2023-09-19T03:31:00;18.10;99.90
16315;DHT22;8266;52.150;4.768;2023-09-19T03:33:27;18.10;99.90
16315;DHT22;8266;52.150;4.768;2023-09-19T03:35:57;18.10;99.90
16315;DHT22;8266;52.150;4.768;2023-09-19T03:38:25;18.10;99.90
16315;DHT22;8266;52.150;4.768;2023-09-19T03:40:51;18.10;99.90
16315;DHT22;8266;52.150;4.768;2023-09-19T03:43:18;18.10;99.90
16315;DHT22;8266;52.150;4.768;2023-09-19T03:45:47;18.10;99.90
16315;DHT22;8266;52.150;4.768;2023-09-19T03:48:16;18.10;99.90
16315;DHT22;8266;52.150;4.768;2023-09-19T03:50:43;18.20;99.90
16315;DHT22;8266;52.150;4.768;2023-09-19T03:53:10;18.20;99.90
16315;DHT22;8266;52.150;4.768;2023-09-19T03:55:36;18.20;99.90
16315;DHT22;8266;52.150;4.768;2023-09-19T03:58:04;18.20;99.90
16315;DHT22;8266;52.150;4.768;2023-09-19T04:00:31;18.20;99.90
16315;DHT22;8266;52.150;4.768;2023-09-19T04:03:01;18.20;99.90
16315;DHT22;8266;52.150;4.768;2023-09-19T04:05:31;18.20;99.90
16315;DHT22;8266;52.150;4.768;2023-09-19T04:07:59;18.20;99.90
16315;DHT22;8266;52.150;4.768;2023-09-19T04:10:26;18.20;99.90
16315;DHT22;8266;52.150;4.768;2023-09-19T04:12:54;18.20;99.90
16315;DHT22;8266;52.150;4.768;2023-09-19T04:15:21;18.10;99.90
16315;DHT22;8266;52.150;4.768;2023-09-19T04:17:49;18.10;99.90
16315;DHT22;8266;52.150;4.768;2023-09-19T04:20:18;18.00;99.90
16315;DHT22;8266;52.150;4.768;2023-09-19T04:22:45;18.00;99.90
16315;DHT22;8266;52.150;4.768;2023-09-19T04:25:13;17.90;99.90
16315;DHT22;8266;52.150;4.768;2023-09-19T04:27:40;17.90;99.90
16315;DHT22;8266;52.150;4.768;2023-09-19T04:30:08;17.80;99.90
16315;DHT22;8266;52.150;4.768;2023-09-19T04:32:37;17.80;99.90
16315;DHT22;8266;52.150;4.768;2023-09-19T04:35:06;17.80;99.90
16315;DHT22;8266;52.150;4.768;2023-09-19T04:37:37;17.70;99.90
16315;DHT22;8266;52.150;4.768;2023-09-19T04:40:06;17.70;99.90
16315;DHT22;8266;52.150;4.768;2023-09-19T04:42:39;17.60;99.90
16315;DHT22;8266;52.150;4.768;2023-09-19T04:45:06;17.60;99.90
16315;DHT22;8266;52.150;4.768;2023-09-19T04:47:35;17.60;99.90
16315;DHT22;8266;52.150;4.768;2023-09-19T04:50:06;17.50;99.90
16315;DHT22;8266;52.150;4.768;2023-09-19T04:52:40;17.50;99.90
16315;DHT22;8266;52.150;4.768;2023-09-19T04:55:09;17.50;99.90
16315;DHT22;8266;52.150;4.768;2023-09-19T04:57:39;17.40;99.90
16315;DHT22;8266;52.150;4.768;2023-09-19T05:00:07;17.40;99.90
16315;DHT22;8266;52.150;4.768;2023-09-19T05:02:38;17.40;99.90
16315;DHT22;8266;52.150;4.768;2023-09-19T05:05:06;17.40;99.90
16315;DHT22;8266;52.150;4.768;2023-09-19T05:07:34;17.30;99.90
16315;DHT22;8266;52.150;4.768;2023-09-19T05:10:03;17.30;99.90
16315;DHT22;8266;52.150;4.768;2023-09-19T05:12:33;17.30;99.90
16315;DHT22;8266;52.150;4.768;2023-09-19T05:15:00;17.30;99.90
16315;DHT22;8266;52.150;4.768;2023-09-19T05:17:28;17.30;99.90
16315;DHT22;8266;52.150;4.768;2023-09-19T05:19:55;17.30;99.90
16315;DHT22;8266;52.150;4.768;2023-09-19T05:22:23;17.30;99.90
16315;DHT22;8266;52.150;4.768;2023-09-19T05:24:51;17.30;99.90
16315;DHT22;8266;52.150;4.768;2023-09-19T05:27:19;17.30;99.90
16315;DHT22;8266;52.150;4.768;2023-09-19T05:29:47;17.30;99.90
16315;DHT22;8266;52.150;4.768;2023-09-19T05:32:16;17.30;99.90
16315;DHT22;8266;52.150;4.768;2023-09-19T05:34:45;17.30;99.90
16315;DHT22;8266;52.150;4.768;2023-09-19T05:37:13;17.30;99.90
16315;DHT22;8266;52.150;4.768;2023-09-19T05:39:42;17.30;99.90
16315;DHT22;8266;52.150;4.768;2023-09-19T05:42:09;17.30;99.90
16315;DHT22;8266;52.150;4.768;2023-09-19T05:44:37;17.30;99.90
16315;DHT22;8266;52.150;4.768;2023-09-19T05:47:05;17.30;99.90
16315;DHT22;8266;52.150;4.768;2023-09-19T05:49:34;17.30;99.90
16315;DHT22;8266;52.150;4.768;2023-09-19T05:52:04;17.30;99.90
16315;DHT22;8266;52.150;4.768;2023-09-19T05:54:31;17.30;99.90
16315;DHT22;8266;52.150;4.768;2023-09-19T05:56:59;17.40;99.90
16315;DHT22;8266;52.150;4.768;2023-09-19T05:59:27;17.40;99.90
16315;DHT22;8266;52.150;4.768;2023-09-19T06:01:55;17.40;99.90
16315;DHT22;8266;52.150;4.768;2023-09-19T06:04:22;17.40;99.90
16315;DHT22;8266;52.150;4.768;2023-09-19T06:06:50;17.40;99.90
16315;DHT22;8266;52.150;4.768;2023-09-19T06:09:18;17.50;99.90
16315;DHT22;8266;52.150;4.768;2023-09-19T06:11:48;17.50;99.90
16315;DHT22;8266;52.150;4.768;2023-09-19T06:14:15;17.50;99.90
16315;DHT22;8266;52.150;4.768;2023-09-19T06:16:43;17.60;99.90
16315;DHT22;8266;52.150;4.768;2023-09-19T06:19:12;17.60;99.90
16315;DHT22;8266;52.150;4.768;2023-09-19T06:21:39;17.60;99.90
16315;DHT22;8266;52.150;4.768;2023-09-19T06:24:06;17.70;99.90
16315;DHT22;8266;52.150;4.768;2023-09-19T06:26:33;17.70;99.90
16315;DHT22;8266;52.150;4.768;2023-09-19T06:29:00;17.70;99.90
16315;DHT22;8266;52.150;4.768;2023-09-19T06:31:33;17.80;99.90
16315;DHT22;8266;52.150;4.768;2023-09-19T06:34:00;17.80;99.90
16315;DHT22;8266;52.150;4.768;2023-09-19T06:36:30;17.80;99.90
16315;DHT22;8266;52.150;4.768;2023-09-19T06:38:57;17.90;99.90
16315;DHT22;8266;52.150;4.768;2023-09-19T06:41:24;17.90;99.90
16315;DHT22;8266;52.150;4.768;2023-09-19T06:43:51;17.90;99.90
16315;DHT22;8266;52.150;4.768;2023-09-19T06:46:19;18.00;99.90
16315;DHT22;8266;52.150;4.768;2023-09-19T06:48:46;18.00;99.90
16315;DHT22;8266;52.150;4.768;2023-09-19T06:51:15;18.00;99.90
16315;DHT22;8266;52.150;4.768;2023-09-19T06:53:43;18.10;99.90
16315;DHT22;8266;52.150;4.768;2023-09-19T06:56:10;18.10;99.90
16315;DHT22;8266;52.150;4.768;2023-09-19T06:58:37;18.10;99.90
16315;DHT22;8266;52.150;4.768;2023-09-19T07:01:04;18.20;99.90
16315;DHT22;8266;52.150;4.768;2023-09-19T07:03:31;18.20;99.90
16315;DHT22;8266;52.150;4.768;2023-09-19T07:05:59;18.30;99.90
16315;DHT22;8266;52.150;4.768;2023-09-19T07:08:26;18.30;99.90
16315;DHT22;8266;52.150;4.768;2023-09-19T07:10:56;18.30;99.90
16315;DHT22;8266;52.150;4.768;2023-09-19T07:13:23;18.40;99.90
16315;DHT22;8266;52.150;4.768;2023-09-19T07:15:50;18.50;99.90
16315;DHT22;8266;52.150;4.768;2023-09-19T07:18:18;18.50;99.90
16315;DHT22;8266;52.150;4.768;2023-09-19T07:20:46;18.60;99.90
16315;DHT22;8266;52.150;4.768;2023-09-19T07:23:16;18.60;99.90
16315;DHT22;8266;52.150;4.768;2023-09-19T07:25:43;18.60;99.90
16315;DHT22;8266;52.150;4.768;2023-09-19T07:28:13;18.70;99.90
16315;DHT22;8266;52.150;4.768;2023-09-19T07:30:40;18.80;99.90
16315;DHT22;8266;52.150;4.768;2023-09-19T07:33:07;18.90;99.90
16315;DHT22;8266;52.150;4.768;2023-09-19T07:35:37;19.00;99.90
16315;DHT22;8266;52.150;4.768;2023-09-19T07:38:05;19.10;99.90
16315;DHT22;8266;52.150;4.768;2023-09-19T07:40:33;19.30;99.90
16315;DHT22;8266;52.150;4.768;2023-09-19T07:43:02;19.40;99.90
16315;DHT22;8266;52.150;4.768;2023-09-19T07:45:31;19.50;99.90
16315;DHT22;8266;52.150;4.768;2023-09-19T07:47:58;19.60;99.90
16315;DHT22;8266;52.150;4.768;2023-09-19T07:50:27;19.80;99.90
16315;DHT22;8266;52.150;4.768;2023-09-19T07:52:54;20.00;99.90
16315;DHT22;8266;52.150;4.768;2023-09-19T07:55:22;20.20;99.90
16315;DHT22;8266;52.150;4.768;2023-09-19T07:57:51;20.30;99.90
16315;DHT22;8266;52.150;4.768;2023-09-19T08:00:18;20.40;99.90
16315;DHT22;8266;52.150;4.768;2023-09-19T08:02:47;20.50;99.90
16315;DHT22;8266;52.150;4.768;2023-09-19T08:05:14;20.60;99.90
16315;DHT22;8266;52.150;4.768;2023-09-19T08:07:43;20.70;99.90
16315;DHT22;8266;52.150;4.768;2023-09-19T08:10:11;20.80;99.90
16315;DHT22;8266;52.150;4.768;2023-09-19T08:12:38;20.90;99.90
16315;DHT22;8266;52.150;4.768;2023-09-19T08:15:12;21.10;99.90
16315;DHT22;8266;52.150;4.768;2023-09-19T08:17:39;21.20;99.90
16315;DHT22;8266;52.150;4.768;2023-09-19T08:20:08;21.30;99.90
16315;DHT22;8266;52.150;4.768;2023-09-19T08:22:46;21.40;99.90
16315;DHT22;8266;52.150;4.768;2023-09-19T08:25:15;21.40;99.90
16315;DHT22;8266;52.150;4.768;2023-09-19T08:27:44;21.40;99.90
16315;DHT22;8266;52.150;4.768;2023-09-19T08:30:14;21.50;99.90
16315;DHT22;8266;52.150;4.768;2023-09-19T08:32:41;21.50;99.90
16315;DHT22;8266;52.150;4.768;2023-09-19T08:35:10;21.50;99.90
16315;DHT22;8266;52.150;4.768;2023-09-19T08:37:37;21.50;99.90
16315;DHT22;8266;52.150;4.768;2023-09-19T08:40:05;21.60;99.90
16315;DHT22;8266;52.150;4.768;2023-09-19T08:42:47;21.70;99.90
16315;DHT22;8266;52.150;4.768;2023-09-19T08:45:15;21.70;99.90
16315;DHT22;8266;52.150;4.768;2023-09-19T08:47:46;21.80;99.90
16315;DHT22;8266;52.150;4.768;2023-09-19T08:50:19;21.80;99.90
16315;DHT22;8266;52.150;4.768;2023-09-19T08:52:51;21.90;99.90
16315;DHT22;8266;52.150;4.768;2023-09-19T08:55:24;22.00;99.90
16315;DHT22;8266;52.150;4.768;2023-09-19T08:58:03;22.10;99.90
16315;DHT22;8266;52.150;4.768;2023-09-19T09:00:30;22.10;99.90
16315;DHT22;8266;52.150;4.768;2023-09-19T09:02:58;22.10;99.90
16315;DHT22;8266;52.150;4.768;2023-09-19T09:05:30;22.00;99.90
16315;DHT22;8266;52.150;4.768;2023-09-19T09:07:58;21.90;99.90
16315;DHT22;8266;52.150;4.768;2023-09-19T09:10:26;21.80;99.90
16315;DHT22;8266;52.150;4.768;2023-09-19T09:12:54;21.70;99.90
16315;DHT22;8266;52.150;4.768;2023-09-19T09:15:22;21.60;99.90
16315;DHT22;8266;52.150;4.768;2023-09-19T09:17:50;21.50;99.90
16315;DHT22;8266;52.150;4.768;2023-09-19T09:20:18;21.40;99.90
16315;DHT22;8266;52.150;4.768;2023-09-19T09:22:54;21.30;99.90
16315;DHT22;8266;52.150;4.768;2023-09-19T09:25:21;21.20;99.90
16315;DHT22;8266;52.150;4.768;2023-09-19T09:27:59;21.20;99.90
16315;DHT22;8266;52.150;4.768;2023-09-19T09:30:34;21.20;99.90
16315;DHT22;8266;52.150;4.768;2023-09-19T09:33:09;21.20;99.90
16315;DHT22;8266;52.150;4.768;2023-09-19T09:35:36;21.20;99.90
16315;DHT22;8266;52.150;4.768;2023-09-19T09:38:54;21.20;99.90
16315;DHT22;8266;52.150;4.768;2023-09-19T09:41:10;21.30;99.90
16315;DHT22;8266;52.150;4.768;2023-09-19T09:43:41;21.40;99.90
16315;DHT22;8266;52.150;4.768;2023-09-19T09:46:14;21.40;99.90
16315;DHT22;8266;52.150;4.768;2023-09-19T09:49:00;21.40;99.90
16315;DHT22;8266;52.150;4.768;2023-09-19T09:51:48;21.40;99.90
16315;DHT22;8266;52.150;4.768;2023-09-19T09:54:25;21.40;99.90
16315;DHT22;8266;52.150;4.768;2023-09-19T09:56:59;21.40;99.90
16315;DHT22;8266;52.150;4.768;2023-09-19T09:59:48;21.40;99.90
16315;DHT22;8266;52.150;4.768;2023-09-19T10:02:17;21.40;99.90
16315;DHT22;8266;52.150;4.768;2023-09-19T10:04:50;21.40;99.90
16315;DHT22;8266;52.150;4.768;2023-09-19T10:07:28;21.40;99.90
16315;DHT22;8266;52.150;4.768;2023-09-19T10:10:01;21.40;99.90
16315;DHT22;8266;52.150;4.768;2023-09-19T10:12:42;21.40;99.90
16315;DHT22;8266;52.150;4.768;2023-09-19T10:15:11;21.40;99.90
16315;DHT22;8266;52.150;4.768;2023-09-19T10:17:42;21.50;99.90
16315;DHT22;8266;52.150;4.768;2023-09-19T10:20:12;21.50;99.90
16315;DHT22;8266;52.150;4.768;2023-09-19T10:23:00;21.60;99.90
16315;DHT22;8266;52.150;4.768;2023-09-19T10:25:29;21.60;99.90
16315;DHT22;8266;52.150;4.768;2023-09-19T10:27:57;21.70;99.90
16315;DHT22;8266;52.150;4.768;2023-09-19T10:30:29;21.80;99.90
16315;DHT22;8266;52.150;4.768;2023-09-19T10:33:00;22.00;99.90
16315;DHT22;8266;52.150;4.768;2023-09-19T10:35:28;22.10;99.90
16315;DHT22;8266;52.150;4.768;2023-09-19T10:37:59;22.20;99.90
16315;DHT22;8266;52.150;4.768;2023-09-19T10:40:28;22.30;99.90
16315;DHT22;8266;52.150;4.768;2023-09-19T10:43:01;22.40;99.90
16315;DHT22;8266;52.150;4.768;2023-09-19T10:45:30;22.50;99.90
16315;DHT22;8266;52.150;4.768;2023-09-19T10:47:58;22.60;99.90
16315;DHT22;8266;52.150;4.768;2023-09-19T10:50:28;22.70;99.90
16315;DHT22;8266;52.150;4.768;2023-09-19T10:53:00;22.90;99.90
16315;DHT22;8266;52.150;4.768;2023-09-19T10:55:32;23.00;99.90
16315;DHT22;8266;52.150;4.768;2023-09-19T10:58:01;23.10;99.90
16315;DHT22;8266;52.150;4.768;2023-09-19T11:00:54;23.10;99.90
16315;DHT22;8266;52.150;4.768;2023-09-19T11:03:23;23.10;99.90
16315;DHT22;8266;52.150;4.768;2023-09-19T11:06:04;23.10;99.90
16315;DHT22;8266;52.150;4.768;2023-09-19T11:08:55;23.00;99.90
16315;DHT22;8266;52.150;4.768;2023-09-19T11:11:44;22.90;99.90
16315;DHT22;8266;52.150;4.768;2023-09-19T11:14:28;22.90;99.90
16315;DHT22;8266;52.150;4.768;2023-09-19T11:20:24;22.70;99.90
16315;DHT22;8266;52.150;4.768;2023-09-19T11:23:25;22.70;99.90
16315;DHT22;8266;52.150;4.768;2023-09-19T11:25:52;22.60;99.90
16315;DHT22;8266;52.150;4.768;2023-09-19T11:28:32;22.60;99.90
16315;DHT22;8266;52.150;4.768;2023-09-19T11:30:59;22.50;99.90
16315;DHT22;8266;52.150;4.768;2023-09-19T11:33:46;22.50;99.90
16315;DHT22;8266;52.150;4.768;2023-09-19T11:36:15;22.50;99.90
16315;DHT22;8266;52.150;4.768;2023-09-19T11:38:58;22.50;99.90
16315;DHT22;8266;52.150;4.768;2023-09-19T11:41:39;22.50;99.90
16315;DHT22;8266;52.150;4.768;2023-09-19T11:44:33;22.60;99.90
16315;DHT22;8266;52.150;4.768;2023-09-19T11:47:06;22.60;99.90
16315;DHT22;8266;52.150;4.768;2023-09-19T11:49:40;22.60;99.90
16315;DHT22;8266;52.150;4.768;2023-09-19T11:52:08;22.50;99.90
16315;DHT22;8266;52.150;4.768;2023-09-19T11:54:36;22.50;99.90
16315;DHT22;8266;52.150;4.768;2023-09-19T11:57:08;22.40;99.90
16315;DHT22;8266;52.150;4.768;2023-09-19T11:59:39;22.40;99.90
16315;DHT22;8266;52.150;4.768;2023-09-19T12:02:06;22.40;99.90
16315;DHT22;8266;52.150;4.768;2023-09-19T12:04:35;22.30;99.90
16315;DHT22;8266;52.150;4.768;2023-09-19T12:07:04;22.30;99.90
16315;DHT22;8266;52.150;4.768;2023-09-19T12:09:31;22.30;99.90
16315;DHT22;8266;52.150;4.768;2023-09-19T12:11:58;22.20;99.90
16315;DHT22;8266;52.150;4.768;2023-09-19T12:14:26;22.20;99.90
16315;DHT22;8266;52.150;4.768;2023-09-19T12:16:55;22.20;99.90
16315;DHT22;8266;52.150;4.768;2023-09-19T12:19:22;22.20;99.90
16315;DHT22;8266;52.150;4.768;2023-09-19T12:21:57;22.20;99.90
16315;DHT22;8266;52.150;4.768;2023-09-19T12:24:26;22.20;99.90
16315;DHT22;8266;52.150;4.768;2023-09-19T12:26:59;22.30;99.90
16315;DHT22;8266;52.150;4.768;2023-09-19T12:29:30;22.30;99.90
16315;DHT22;8266;52.150;4.768;2023-09-19T12:31:59;22.40;99.90
16315;DHT22;8266;52.150;4.768;2023-09-19T12:34:30;22.50;99.90
16315;DHT22;8266;52.150;4.768;2023-09-19T12:37:07;22.60;99.90
16315;DHT22;8266;52.150;4.768;2023-09-19T12:39:39;22.70;99.90
16315;DHT22;8266;52.150;4.768;2023-09-19T12:42:08;22.80;99.90
16315;DHT22;8266;52.150;4.768;2023-09-19T12:44:36;22.80;99.90
16315;DHT22;8266;52.150;4.768;2023-09-19T12:47:12;22.80;99.90
16315;DHT22;8266;52.150;4.768;2023-09-19T12:50:06;22.80;99.90
16315;DHT22;8266;52.150;4.768;2023-09-19T12:52:39;22.70;99.90
16315;DHT22;8266;52.150;4.768;2023-09-19T12:55:06;22.70;99.90
16315;DHT22;8266;52.150;4.768;2023-09-19T12:57:34;22.60;99.90
16315;DHT22;8266;52.150;4.768;2023-09-19T13:00:02;22.70;99.90
16315;DHT22;8266;52.150;4.768;2023-09-19T13:02:32;22.60;99.90
16315;DHT22;8266;52.150;4.768;2023-09-19T13:04:59;22.70;99.90
16315;DHT22;8266;52.150;4.768;2023-09-19T13:07:42;22.70;99.90
16315;DHT22;8266;52.150;4.768;2023-09-19T13:10:11;22.70;99.90
16315;DHT22;8266;52.150;4.768;2023-09-19T13:12:42;22.80;99.90
16315;DHT22;8266;52.150;4.768;2023-09-19T13:15:14;22.80;99.90
16315;DHT22;8266;52.150;4.768;2023-09-19T13:17:48;22.80;99.90
16315;DHT22;8266;52.150;4.768;2023-09-19T13:20:22;22.80;99.90
16315;DHT22;8266;52.150;4.768;2023-09-19T13:22:53;22.80;99.90
16315;DHT22;8266;52.150;4.768;2023-09-19T13:25:24;22.80;99.90
16315;DHT22;8266;52.150;4.768;2023-09-19T13:27:55;22.70;99.90
16315;DHT22;8266;52.150;4.768;2023-09-19T13:30:23;22.70;99.90
16315;DHT22;8266;52.150;4.768;2023-09-19T13:33:03;22.60;99.90
16315;DHT22;8266;52.150;4.768;2023-09-19T13:35:31;22.60;99.90
16315;DHT22;8266;52.150;4.768;2023-09-19T13:37:58;22.50;99.90
16315;DHT22;8266;52.150;4.768;2023-09-19T13:40:26;22.50;99.90
16315;DHT22;8266;52.150;4.768;2023-09-19T13:42:56;22.50;99.90
16315;DHT22;8266;52.150;4.768;2023-09-19T13:45:23;22.50;99.90
16315;DHT22;8266;52.150;4.768;2023-09-19T13:47:53;22.40;99.90
16315;DHT22;8266;52.150;4.768;2023-09-19T13:50:21;22.40;99.90
16315;DHT22;8266;52.150;4.768;2023-09-19T13:52:49;22.40;99.90
16315;DHT22;8266;52.150;4.768;2023-09-19T13:55:17;22.30;99.90
16315;DHT22;8266;52.150;4.768;2023-09-19T13:57:46;22.30;99.90
16315;DHT22;8266;52.150;4.768;2023-09-19T14:00:15;22.30;99.90
16315;DHT22;8266;52.150;4.768;2023-09-19T14:02:43;22.30;99.90
16315;DHT22;8266;52.150;4.768;2023-09-19T14:05:13;22.30;99.90
16315;DHT22;8266;52.150;4.768;2023-09-19T14:07:41;22.20;99.90
16315;DHT22;8266;52.150;4.768;2023-09-19T14:10:09;22.20;99.90
16315;DHT22;8266;52.150;4.768;2023-09-19T14:12:37;22.20;99.90
16315;DHT22;8266;52.150;4.768;2023-09-19T14:15:04;22.20;99.90
16315;DHT22;8266;52.150;4.768;2023-09-19T14:17:32;22.20;99.90
16315;DHT22;8266;52.150;4.768;2023-09-19T14:19:59;22.10;99.90
16315;DHT22;8266;52.150;4.768;2023-09-19T14:22:28;22.10;99.90
16315;DHT22;8266;52.150;4.768;2023-09-19T14:24:55;22.10;99.90
16315;DHT22;8266;52.150;4.768;2023-09-19T14:27:22;22.00;99.90
16315;DHT22;8266;52.150;4.768;2023-09-19T14:29:50;21.90;99.90
16315;DHT22;8266;52.150;4.768;2023-09-19T14:32:18;21.80;99.90
16315;DHT22;8266;52.150;4.768;2023-09-19T14:34:45;21.70;99.90
16315;DHT22;8266;52.150;4.768;2023-09-19T14:37:12;21.60;99.90
16315;DHT22;8266;52.150;4.768;2023-09-19T14:39:41;21.50;99.90
16315;DHT22;8266;52.150;4.768;2023-09-19T14:42:10;21.50;99.90
16315;DHT22;8266;52.150;4.768;2023-09-19T14:44:38;21.40;99.90
16315;DHT22;8266;52.150;4.768;2023-09-19T14:47:05;21.40;99.90
16315;DHT22;8266;52.150;4.768;2023-09-19T14:49:33;21.40;99.90
16315;DHT22;8266;52.150;4.768;2023-09-19T14:52:00;21.30;99.90
16315;DHT22;8266;52.150;4.768;2023-09-19T14:54:29;21.30;99.90
16315;DHT22;8266;52.150;4.768;2023-09-19T14:56:58;21.30;99.90
16315;DHT22;8266;52.150;4.768;2023-09-19T14:59:30;21.30;99.90
16315;DHT22;8266;52.150;4.768;2023-09-19T15:01:57;21.30;99.90
16315;DHT22;8266;52.150;4.768;2023-09-19T15:04:24;21.30;99.90
16315;DHT22;8266;52.150;4.768;2023-09-19T15:06:51;21.40;99.90
16315;DHT22;8266;52.150;4.768;2023-09-19T15:09:20;21.40;99.90
16315;DHT22;8266;52.150;4.768;2023-09-19T15:11:49;21.40;99.90
16315;DHT22;8266;52.150;4.768;2023-09-19T15:14:19;21.40;99.90
16315;DHT22;8266;52.150;4.768;2023-09-19T15:16:46;21.40;99.90
16315;DHT22;8266;52.150;4.768;2023-09-19T15:19:13;21.40;99.90
16315;DHT22;8266;52.150;4.768;2023-09-19T15:21:40;21.40;99.90
16315;DHT22;8266;52.150;4.768;2023-09-19T15:24:08;21.40;99.90
16315;DHT22;8266;52.150;4.768;2023-09-19T15:26:35;21.50;99.90
16315;DHT22;8266;52.150;4.768;2023-09-19T15:29:05;21.50;99.90
16315;DHT22;8266;52.150;4.768;2023-09-19T15:31:33;21.50;99.90
16315;DHT22;8266;52.150;4.768;2023-09-19T15:34:02;21.50;99.90
16315;DHT22;8266;52.150;4.768;2023-09-19T15:36:29;21.50;99.90
16315;DHT22;8266;52.150;4.768;2023-09-19T15:39:00;21.50;99.90
16315;DHT22;8266;52.150;4.768;2023-09-19T15:41:30;21.50;99.90
16315;DHT22;8266;52.150;4.768;2023-09-19T15:43:59;21.50;99.90
16315;DHT22;8266;52.150;4.768;2023-09-19T15:46:27;21.60;99.90
16315;DHT22;8266;52.150;4.768;2023-09-19T15:48:57;21.60;99.90
16315;DHT22;8266;52.150;4.768;2023-09-19T15:51:24;21.60;99.90
16315;DHT22;8266;52.150;4.768;2023-09-19T15:53:53;21.60;99.90
16315;DHT22;8266;52.150;4.768;2023-09-19T15:56:22;21.50;99.90
16315;DHT22;8266;52.150;4.768;2023-09-19T15:58:50;21.50;99.90
16315;DHT22;8266;52.150;4.768;2023-09-19T16:01:18;21.50;99.90
16315;DHT22;8266;52.150;4.768;2023-09-19T16:03:47;21.40;99.90
16315;DHT22;8266;52.150;4.768;2023-09-19T16:06:17;21.40;99.90
16315;DHT22;8266;52.150;4.768;2023-09-19T16:08:46;21.30;99.90